Startpagina
METAR-TAF:

METAR-TAF

Vliegvelden :

Nagpur, India

breedte: 21-06N, lengte: 079-03E, hoogte: 308 m

Actueel weer

Dit bericht is 41 minuten geleden gemaakt, om 11:00 UTC
Wind 4 kt uit het oosten
Temperatuur 38°C
Vochtigheid 16%
Druk 1009 hPa
Zicht: 4000 m
Weinig wolken op 10000 ft
Heiigheid

METAR: VANP 251100Z 08004KT 4000 HZ FEW100 38/08 Q1009 NOSIG

Tijdstip: 17:11 (11:41 UTC)

Verwachting

Dit bericht is 3 uur en het 41 minuten geleden gemaakt, om 08:00 UTC
Verwachting geldig van 25 om 09 UTC tot 25 om 18 UTC
Wind 5 kt uit het zuiden
Zicht: 5000 m
Heiigheid
Wijzigt naar
van 25 om 12 UTC tot 25 om 14 UTC
Wind 3 kt uit het zuidzuidoosten
Zicht: 4000 m
Heiigheid
Wijzigt naar
van 25 om 16 UTC tot 25 om 18 UTC
Wind 5 kt uit het westzuidwesten
Zicht: 4000 m
Heiigheid

TAF: VANP 250800Z 2509/2518 19005KT 5000 HZ NSC BECMG 2512/2514 16003KT 4000 HZ BECMG 2516/2518 24005KT 4000 HZ

Waarnemingen en weersverwachtingen van meer dan 4000 vliegvelden (METAR en TAF).

De beschikbare stations zijn de gele en rode punten op de kaart.

Ga met uw muis naar het station om de naam te zien.

Klik dan om waarnemingen en weersverwachtingen te zien.

kaart wijzigen: klik op de groene knoppen met een zwart kruis om in te zoomen, op de groene knop met een streepje om uit te zoomen of op de groene pijlen voor aangrenzende kaarten.


METAR-TAF: